Time;durP1;ratioP1;P1;durP2;ratioP2;P2;SDS_P1;SDS_P2;PMS_P1;PMS_P2;Temp;Humidity;BMP_temperature;BMP_pressure;BME280_temperature;BME280_humidity;BME280_pressure;Samples;Min_cycle;Max_cycle;Signal;HPM_P1;HPM_P2
2022/07/22 00:00:17;;;;;;;11.25;5.25;;;;;;;15.28;100.00;121676.06;5012065;28;20494;-63
2022/07/22 00:02:42;;;;;;;6.88;4.75;;;;;;;15.26;100.00;122024.75;5017108;28;20026;-62
2022/07/22 00:05:10;;;;;;;13.25;5.45;;;;;;;15.27;100.00;122025.72;5011902;28;20042;-63
2022/07/22 00:07:36;;;;;;;7.45;4.32;;;;;;;15.29;100.00;121677.09;5013861;28;20109;-62
2022/07/22 00:10:01;;;;;;;14.65;4.85;;;;;;;15.25;100.00;121669.13;5011791;28;20423;-62
2022/07/22 00:12:27;;;;;;;8.07;5.45;;;;;;;15.25;100.00;122021.75;5022456;28;20021;-62
2022/07/22 00:14:52;;;;;;;10.52;5.00;;;;;;;15.25;100.00;122021.75;5030988;28;20045;-62
2022/07/22 00:17:17;;;;;;;7.30;4.75;;;;;;;15.22;100.00;123781.22;5029892;28;20457;-62
2022/07/22 00:19:43;;;;;;;10.05;5.68;;;;;;;15.20;100.00;125188.41;5031738;28;20045;-62
2022/07/22 00:22:08;;;;;;;11.73;5.53;;;;;;;15.21;100.00;124484.78;5031474;28;20024;-62
2022/07/22 00:24:33;;;;;;;11.13;5.63;;;;;;;15.22;100.00;123427.44;5031150;28;20354;-61
2022/07/22 00:26:59;;;;;;;11.43;6.38;;;;;;;15.20;100.00;122365.41;5032821;28;20130;-62
2022/07/22 00:29:24;;;;;;;13.43;4.78;;;;;;;15.20;100.00;122719.06;5031344;28;20108;-62
2022/07/22 00:31:50;;;;;;;9.32;4.25;;;;;;;15.21;100.00;123779.19;5029031;28;20029;-63
2022/07/22 00:34:15;;;;;;;7.15;4.63;;;;;;;15.21;100.00;125190.47;5011150;28;20038;-62
2022/07/22 00:36:40;;;;;;;8.10;3.90;;;;;;;15.20;100.00;126600.16;5025724;28;20032;-63
2022/07/22 00:39:06;;;;;;;16.13;4.53;;;;;;;15.16;100.00;129416.59;5024525;28;20096;-63
2022/07/22 00:41:32;;;;;;;15.18;4.45;;;;;;;15.16;100.00;132595.66;5011291;28;20092;-63
2022/07/22 00:44:08;;;;;;;8.88;3.33;;;;;;;15.16;100.00;133657.31;5032287;28;20124;-63
2022/07/22 00:46:35;;;;;;;6.63;3.58;;;;;;;15.14;100.00;135067.47;5027196;28;20041;-63
2022/07/22 00:49:01;;;;;;;4.68;3.30;;;;;;;15.14;100.00;136481.31;5031857;28;20463;-62
2022/07/22 00:51:28;;;;;;;11.52;4.03;;;;;;;15.11;100.00;137891.13;5011436;28;20052;-63
2022/07/22 00:53:54;;;;;;;9.20;3.15;;;;;;;15.14;100.00;138250.72;5031528;28;20485;-62
2022/07/22 00:56:21;;;;;;;8.25;4.05;;;;;;;15.11;100.00;139307.00;5029082;28;20049;-63
2022/07/22 00:58:48;;;;;;;10.93;4.50;;;;;;;15.08;100.00;140362.34;5012570;28;20037;-63
2022/07/22 01:01:14;;;;;;;14.77;3.53;;;;;;;15.08;100.00;140716.47;5010597;28;20049;-62
2022/07/22 01:03:40;;;;;;;16.38;4.05;;;;;;;15.09;100.00;141071.78;5030715;28;21032;-62
2022/07/22 01:06:06;;;;;;;13.20;4.03;;;;;;;15.07;100.00;142486.34;5030279;28;20045;-62
2022/07/22 01:08:33;;;;;;;12.43;3.75;;;;;;;15.05;100.00;144606.69;5013089;28;20034;-62
2022/07/22 01:11:13;;;;;;;15.15;3.50;;;;;;;15.02;100.00;146373.31;5011031;28;20382;-62
2022/07/22 01:13:39;;;;;;;14.05;3.78;;;;;;;15.03;100.00;146729.09;5016144;28;20112;-62
2022/07/22 01:16:06;;;;;;;10.65;3.85;;;;;;;15.02;100.00;145663.00;5010343;28;20042;-63
2022/07/22 01:18:31;;;;;;;8.68;5.03;;;;;;;15.02;100.00;144599.56;5012076;28;20548;-63
2022/07/22 01:20:57;;;;;;;11.80;5.20;;;;;;;15.02;100.00;143890.75;5029288;28;20037;-62
2022/07/22 01:23:23;;;;;;;13.27;5.18;;;;;;;15.02;100.00;143536.41;5026391;28;20029;-63
2022/07/22 01:25:48;;;;;;;10.85;4.40;;;;;;;14.99;100.00;142820.78;5030500;28;20053;-63
2022/07/22 01:28:14;;;;;;;25.58;5.88;;;;;;;14.97;100.00;146005.56;5030825;28;20053;-62
2022/07/22 01:30:39;;;;;;;12.10;5.13;;;;;;;14.96;100.00;147777.38;5030024;28;20099;-63
2022/07/22 01:33:04;;;;;;;8.82;4.38;;;;;;;14.96;100.00;147422.72;5014596;28;20034;-63
2022/07/22 01:35:30;;;;;;;9.00;3.83;;;;;;;14.91;100.00;147411.84;5028265;28;20119;-62
2022/07/22 01:37:55;;;;;;;10.23;3.58;;;;;;;14.95;100.00;147773.72;5030518;28;20088;-62
2022/07/22 01:40:20;;;;;;;11.38;4.40;;;;;;;14.80;100.00;147029.50;5030038;28;20111;-63
2022/07/22 01:42:46;;;;;;;10.18;4.10;;;;;;;14.96;100.00;146358.94;5026237;28;20030;-62
2022/07/22 01:45:11;;;;;;;10.13;4.55;;;;;;;14.94;100.00;147771.28;5029216;28;20516;-62
2022/07/22 01:47:36;;;;;;;10.60;4.55;;;;;;;14.90;100.00;149537.63;5029413;28;20374;-62
2022/07/22 01:50:05;;;;;;;16.80;5.07;;;;;;;14.93;100.00;150252.19;5030239;28;20029;-62
2022/07/22 01:52:30;;;;;;;14.40;5.65;;;;;;;14.94;100.00;147063.25;5030395;28;20043;-62
2022/07/22 01:54:56;;;;;;;11.82;6.07;;;;;;;14.95;100.00;144582.97;5027998;28;20045;-62
2022/07/22 01:57:21;;;;;;;16.60;4.88;;;;;;;14.89;100.00;142798.56;5025653;28;20563;-61
2022/07/22 01:59:46;;;;;;;8.68;4.63;;;;;;;14.93;100.00;142806.75;5009719;28;20409;-62
2022/07/22 02:02:12;;;;;;;14.60;5.25;;;;;;;14.92;100.00;142805.56;5019808;28;20018;-62
2022/07/22 02:04:37;;;;;;;17.45;6.60;;;;;;;14.90;100.00;143864.84;5029682;28;20037;-62
2022/07/22 02:07:03;;;;;;;13.25;4.43;;;;;;;14.89;100.00;144925.50;5028262;28;20079;-62
2022/07/22 02:09:28;;;;;;;10.55;4.93;;;;;;;14.81;100.00;144552.19;5027712;28;20497;-62
2022/07/22 02:11:54;;;;;;;11.98;5.30;;;;;;;14.89;100.00;143861.31;5019664;28;20028;-62
2022/07/22 02:14:19;;;;;;;14.07;4.88;;;;;;;14.86;100.00;144209.69;5020016;28;20022;-62
2022/07/22 02:16:44;;;;;;;8.38;4.05;;;;;;;14.82;100.00;145617.66;5020790;28;20021;-62
2022/07/22 02:19:10;;;;;;;13.52;4.82;;;;;;;14.82;100.00;146681.00;5020164;28;20037;-62
2022/07/22 02:21:36;;;;;;;12.52;5.28;;;;;;;14.83;100.00;145620.03;5019374;28;20045;-62
2022/07/22 02:24:01;;;;;;;35.80;7.38;;;;;;;14.80;100.00;146321.72;5019489;28;20018;-62
2022/07/22 02:26:27;;;;;;;9.57;5.68;;;;;;;14.81;100.00;147741.03;5019354;28;20460;-62
2022/07/22 02:28:52;;;;;;;14.80;5.50;;;;;;;14.81;100.00;146678.59;5019837;28;20022;-62
2022/07/22 02:31:20;;;;;;;13.68;4.70;;;;;;;14.80;100.00;145257.31;5028245;28;20520;-62
2022/07/22 02:33:45;;;;;;;8.70;4.57;;;;;;;14.78;100.00;145608.06;5031069;28;20018;-64
2022/07/22 02:36:10;;;;;;;8.10;5.13;;;;;;;14.79;100.00;146673.78;5029382;28;20566;-64
2022/07/22 02:38:36;;;;;;;9.10;4.30;;;;;;;14.79;100.00;146318.13;5019272;28;20029;-63
2022/07/22 02:41:01;;;;;;;8.65;5.35;;;;;;;14.77;100.00;149151.03;5014388;28;20109;-64
2022/07/22 02:43:27;;;;;;;13.98;5.13;;;;;;;14.78;100.00;149862.88;5034907;28;20029;-63
2022/07/22 02:45:52;;;;;;;20.48;6.95;;;;;;;14.77;100.00;151278.41;5030860;28;20083;-64
2022/07/22 02:48:17;;;;;;;12.85;5.32;;;;;;;14.77;100.00;150215.22;5034592;28;20022;-63
2022/07/22 02:50:46;;;;;;;14.95;6.43;;;;;;;14.77;100.00;148087.13;5020021;28;20094;-64
2022/07/22 02:53:12;;;;;;;14.98;5.68;;;;;;;14.73;100.00;148078.63;5030889;28;20029;-63
2022/07/22 02:55:37;;;;;;;8.52;6.13;;;;;;;14.69;100.00;149486.09;5033263;28;20099;-64
2022/07/22 02:58:07;;;;;;;10.90;6.63;;;;;;;14.62;100.00;151597.16;5034671;28;20055;-64
2022/07/22 03:00:33;;;;;;;13.60;5.43;;;;;;;14.53;100.00;152996.50;5018484;28;20059;-64
2022/07/22 03:02:59;;;;;;;17.40;8.38;;;;;;;14.46;100.00;152978.94;5025034;28;20030;-64
2022/07/22 03:05:24;;;;;;;11.95;6.45;;;;;;;14.41;100.00;150838.03;5013064;28;20037;-64
2022/07/22 03:07:50;;;;;;;13.60;6.18;;;;;;;14.35;100.00;149406.34;5014338;28;20092;-64
2022/07/22 03:10:15;;;;;;;6.55;5.30;;;;;;;14.28;100.00;149035.97;5013074;28;20065;-65
2022/07/22 03:12:40;;;;;;;10.10;6.63;;;;;;;14.22;100.00;147958.34;5027544;28;20076;-65
2022/07/22 03:15:06;;;;;;;11.30;6.72;;;;;;;14.14;100.00;145458.91;5012758;28;20527;-65
2022/07/22 03:17:36;;;;;;;15.38;6.07;;;;;;;14.14;100.00;142628.94;5030262;28;20025;-65
2022/07/22 03:20:07;;;;;;;17.90;6.55;;;;;;;14.12;100.00;140503.41;5032703;28;20029;-64
2022/07/22 03:22:32;;;;;;;12.32;7.25;;;;;;;14.08;100.00;140139.50;5032610;28;20021;-64
2022/07/22 03:24:58;;;;;;;11.75;6.53;;;;;;;13.98;100.00;140823.53;5032802;28;20546;-64
2022/07/22 03:27:23;;;;;;;10.98;6.90;;;;;;;13.86;100.00;142212.22;5033637;28;20440;-64
2022/07/22 03:29:49;;;;;;;21.58;7.18;;;;;;;13.86;100.00;141858.66;5032008;28;20076;-61
2022/07/22 03:32:14;;;;;;;13.07;8.32;;;;;;;13.84;100.00;139733.31;5032981;28;20029;-62
2022/07/22 03:34:39;;;;;;;22.73;8.73;;;;;;;13.85;100.00;136203.50;5032513;28;20077;-62
2022/07/22 03:37:05;;;;;;;10.80;6.95;;;;;;;13.88;100.00;132680.97;5032810;28;20021;-64
2022/07/22 03:39:30;;;;;;;13.60;7.25;;;;;;;13.90;100.00;130568.03;5031472;28;20032;-65
2022/07/22 03:41:55;;;;;;;17.67;7.75;;;;;;;13.91;100.00;128808.56;5032288;28;20028;-62
2022/07/22 03:44:21;;;;;;;13.45;7.03;;;;;;;13.96;100.00;126704.66;5031496;28;20032;-62
2022/07/22 03:46:46;;;;;;;15.90;7.28;;;;;;;14.00;100.00;124949.63;5033623;28;20401;-62
2022/07/22 03:49:11;;;;;;;12.68;6.63;;;;;;;14.01;100.00;123896.25;5033827;28;20033;-62
2022/07/22 03:51:37;;;;;;;13.23;6.68;;;;;;;14.04;100.00;123197.16;5030279;28;20037;-62
2022/07/22 03:54:02;;;;;;;14.10;7.75;;;;;;;14.08;100.00;122502.13;5033499;28;20022;-62
2022/07/22 03:56:27;;;;;;;14.68;6.53;;;;;;;14.10;100.00;121801.16;5018887;28;20061;-62
2022/07/22 03:58:53;;;;;;;14.13;6.45;;;;;;;14.14;100.00;121105.16;5013354;28;20033;-63
2022/07/22 04:01:18;;;;;;;9.27;6.22;;;;;;;14.18;100.00;120409.25;5016982;28;20045;-63
2022/07/22 04:03:44;;;;;;;6.93;6.20;;;;;;;14.20;100.00;120061.25;5033035;28;20034;-62
2022/07/22 04:06:09;;;;;;;11.45;5.20;;;;;;;14.21;100.00;120415.13;5017783;28;20049;-60
2022/07/22 04:08:34;;;;;;;11.07;6.47;;;;;;;14.23;100.00;121474.94;5014020;28;20029;-58
2022/07/22 04:11:00;;;;;;;10.68;6.22;;;;;;;14.24;100.00;122181.03;5019915;28;20107;-59
2022/07/22 04:13:25;;;;;;;13.20;6.70;;;;;;;14.20;100.00;122525.09;5016939;28;20038;-58
2022/07/22 04:15:50;;;;;;;10.68;6.72;;;;;;;14.32;100.00;122900.25;5012122;28;20104;-58
2022/07/22 04:18:17;;;;;;;22.00;8.95;;;;;;;14.38;100.00;122911.28;5012910;28;20029;-58
2022/07/22 04:20:42;;;;;;;16.88;6.97;;;;;;;14.40;100.00;123267.56;5012604;28;20582;-58
2022/07/22 04:23:08;;;;;;;14.75;6.53;;;;;;;14.45;100.00;123629.88;5032761;28;20049;-59
2022/07/22 04:25:33;;;;;;;17.67;7.55;;;;;;;14.50;100.00;124343.72;5030774;28;20488;-58
2022/07/22 04:27:59;;;;;;;10.40;6.18;;;;;;;14.54;100.00;124705.28;5015043;28;20045;-58
2022/07/22 04:30:24;;;;;;;17.50;6.85;;;;;;;14.56;100.00;125414.34;5028297;28;20053;-58
2022/07/22 04:32:49;;;;;;;13.35;6.75;;;;;;;14.59;100.00;128947.53;5013243;28;20026;-58
2022/07/22 04:35:15;;;;;;;20.00;9.25;;;;;;;14.65;100.00;131076.97;5022987;28;20432;-58
2022/07/22 04:37:40;;;;;;;14.23;7.40;;;;;;;14.70;100.00;131439.78;5013791;28;20104;-58
2022/07/22 04:40:06;;;;;;;11.93;7.43;;;;;;;14.74;100.00;132862.25;5030506;28;20045;-58
2022/07/22 04:42:31;;;;;;;12.20;5.55;;;;;;;14.79;100.00;133932.06;5030792;28;20025;-58
2022/07/22 04:44:57;;;;;;;13.77;5.78;;;;;;;14.82;100.00;137120.56;5011502;28;20038;-58
2022/07/22 04:47:22;;;;;;;8.00;5.93;;;;;;;14.91;100.00;138202.09;5032263;28;20041;-58
2022/07/22 04:49:47;;;;;;;12.38;7.10;;;;;;;14.96;100.00;138920.06;5015688;28;20045;-58
2022/07/22 04:52:13;;;;;;;13.05;6.32;;;;;;;14.99;100.00;139987.66;5016811;28;20026;-58
2022/07/22 04:54:38;;;;;;;15.55;6.93;;;;;;;15.11;100.00;139661.06;5013923;28;20050;-58
2022/07/22 04:57:03;;;;;;;7.97;5.93;;;;;;;15.07;100.00;146029.53;5012551;28;20026;-58
2022/07/22 04:59:29;;;;;;;8.95;5.97;;;;;;;15.12;100.00;149944.06;5029459;28;20029;-58
2022/07/22 05:01:54;;;;;;;12.20;5.82;;;;;;;15.14;100.00;153855.38;5017700;28;20037;-58
2022/07/22 05:04:19;;;;;;;13.57;5.65;;;;;;;15.17;100.00;159651.84;5018909;28;20481;-58
2022/07/22 05:06:45;;;;;;;9.50;6.50;;;;;;;15.21;100.00;164542.59;5019720;28;20021;-59
2022/07/22 05:09:10;;;;;;;14.32;6.38;;;;;;;15.29;100.00;164562.94;5019980;28;20515;-58
2022/07/22 05:11:35;;;;;;;9.35;5.05;;;;;;;15.38;100.00;164261.56;5019956;28;20404;-58
2022/07/22 05:14:01;;;;;;;9.02;5.60;;;;;;;15.37;100.00;164585.94;5021396;28;20018;-58
2022/07/22 05:16:26;;;;;;;11.48;5.10;;;;;;;15.42;100.00;164596.75;5019020;28;20064;-58
2022/07/22 05:18:51;;;;;;;14.00;6.13;;;;;;;15.44;100.00;164603.56;5022525;28;20036;-58
2022/07/22 05:21:17;;;;;;;18.15;6.38;;;;;;;15.48;100.00;164614.34;5019676;28;20040;-59
2022/07/22 05:23:42;;;;;;;15.38;6.95;;;;;;;15.48;100.00;164613.03;5020876;28;20063;-58
2022/07/22 05:26:09;;;;;;;6.68;4.03;;;;;;;15.58;100.00;164638.75;5015382;28;20052;-57
2022/07/22 05:28:34;;;;;;;12.30;4.93;;;;;;;15.63;100.00;164652.25;5025998;28;20034;-58
2022/07/22 05:30:59;;;;;;;15.35;4.70;;;;;;;15.71;100.00;164673.94;5028707;28;20448;-57
2022/07/22 05:33:25;;;;;;;8.50;5.28;;;;;;;15.78;100.00;164691.56;5026928;28;20037;-57
2022/07/22 05:35:51;;;;;;;13.32;5.75;;;;;;;15.88;100.00;164717.31;5027699;28;20086;-58
2022/07/22 05:38:16;;;;;;;8.43;4.63;;;;;;;15.93;100.00;164730.84;5029657;28;20021;-58
2022/07/22 05:40:41;;;;;;;12.32;5.50;;;;;;;16.00;100.00;164749.81;5029657;28;20409;-57
2022/07/22 05:43:07;;;;;;;13.52;4.95;;;;;;;16.02;100.00;164756.56;5022695;28;20025;-57
2022/07/22 05:45:32;;;;;;;8.18;4.55;;;;;;;16.09;100.00;164774.19;5026717;28;20037;-58
2022/07/22 05:47:57;;;;;;;13.25;6.25;;;;;;;16.05;100.00;164763.31;5025475;28;20029;-58
2022/07/22 05:50:23;;;;;;;13.30;4.90;;;;;;;16.07;100.00;164768.75;5008229;28;20683;-58
2022/07/22 05:52:48;;;;;;;19.60;6.07;;;;;;;16.10;100.00;164775.53;5017947;28;20030;-58
2022/07/22 05:55:14;;;;;;;7.22;3.70;;;;;;;16.04;100.00;164759.28;5029054;28;20045;-57
2022/07/22 05:57:39;;;;;;;7.95;5.00;;;;;;;16.07;100.00;164768.75;5029324;28;20396;-58
2022/07/22 06:00:05;;;;;;;13.73;5.63;;;;;;;16.14;100.00;164786.38;5028384;28;20044;-57
2022/07/22 06:02:31;;;;;;;10.30;4.43;;;;;;;16.25;100.00;164814.81;5029675;28;20484;-58
2022/07/22 06:04:56;;;;;;;13.10;5.07;;;;;;;16.26;100.00;164817.53;5028768;28;20037;-58
2022/07/22 06:07:21;;;;;;;12.27;4.07;;;;;;;16.23;100.00;164809.41;5027101;28;20029;-58
2022/07/22 06:09:47;;;;;;;11.52;4.90;;;;;;;16.27;100.00;164820.25;5025793;28;20052;-58
2022/07/22 06:12:12;;;;;;;5.05;3.88;;;;;;;16.25;100.00;164814.81;5013042;28;20029;-57
2022/07/22 06:14:38;;;;;;;7.70;3.85;;;;;;;16.26;100.00;164817.53;5018770;28;20044;-58
2022/07/22 06:17:03;;;;;;;14.02;4.13;;;;;;;16.36;100.00;164843.25;5027818;28;20036;-58
2022/07/22 06:19:29;;;;;;;14.07;4.82;;;;;;;16.44;100.00;164864.94;5027776;28;20021;-57
2022/07/22 06:21:55;;;;;;;11.35;3.42;;;;;;;16.50;100.00;164882.53;5014153;28;20037;-58
2022/07/22 06:24:20;;;;;;;7.38;3.75;;;;;;;16.52;100.00;164885.22;5026682;28;20026;-58
2022/07/22 06:26:46;;;;;;;7.40;3.08;;;;;;;16.59;100.00;164905.59;5028145;28;20045;-58
2022/07/22 06:29:11;;;;;;;14.55;3.40;;;;;;;16.64;100.00;164917.78;5013076;28;20481;-60
2022/07/22 06:31:37;;;;;;;8.82;3.28;;;;;;;16.65;100.00;164920.44;5008060;28;20050;-57
2022/07/22 06:34:05;;;;;;;7.90;3.88;;;;;;;16.64;100.00;164917.78;5009904;28;20129;-57
2022/07/22 06:36:31;;;;;;;8.20;3.63;;;;;;;16.73;100.00;164940.78;5017974;28;20038;-58
2022/07/22 06:38:56;;;;;;;14.43;3.63;;;;;;;16.69;100.00;164929.94;5023117;28;20029;-58
2022/07/22 06:41:22;;;;;;;8.52;3.67;;;;;;;16.76;100.00;164950.28;5008771;28;20042;-57
2022/07/22 06:43:47;;;;;;;8.50;4.40;;;;;;;16.81;100.00;164963.81;5010298;28;20026;-57
2022/07/22 06:46:12;;;;;;;13.38;4.60;;;;;;;16.85;100.00;164971.97;5009066;28;20042;-57
2022/07/22 06:48:38;;;;;;;5.88;3.88;;;;;;;16.84;100.00;164969.25;5009966;28;20026;-57
2022/07/22 06:51:03;;;;;;;10.75;4.28;;;;;;;16.91;100.00;164989.53;5009070;28;20040;-57
2022/07/22 06:53:28;;;;;;;12.15;4.35;;;;;;;16.91;100.00;164988.22;5012964;28;20111;-57
2022/07/22 06:55:54;;;;;;;13.15;4.47;;;;;;;16.80;100.00;164961.09;5028622;28;20045;-58
2022/07/22 06:58:19;;;;;;;10.05;4.38;;;;;;;16.55;100.00;164894.72;5028981;28;20025;-58
2022/07/22 07:00:45;;;;;;;6.32;2.95;;;;;;;16.59;100.00;164904.19;5028843;28;20065;-58
2022/07/22 07:03:10;;;;;;;10.18;3.80;;;;;;;16.74;100.00;164944.84;5027432;28;20025;-58
2022/07/22 07:05:35;;;;;;;6.43;2.70;;;;;;;16.81;100.00;164962.47;5026438;28;20065;-58
2022/07/22 07:08:01;;;;;;;6.18;2.78;;;;;;;16.89;100.00;164982.78;5029508;28;20034;-58
2022/07/22 07:10:26;;;;;;;8.32;2.40;;;;;;;16.89;100.00;164984.16;5028269;28;20041;-58
2022/07/22 07:12:56;;;;;;;6.57;3.58;;;;;;;16.97;100.00;165004.50;5029037;28;20030;-58
2022/07/22 07:15:21;;;;;;;6.93;2.97;;;;;;;16.75;100.00;164947.56;5027712;28;20063;-57
2022/07/22 07:17:46;;;;;;;11.82;3.63;;;;;;;16.95;100.00;164999.06;5028735;28;20547;-58
2022/07/22 07:20:12;;;;;;;7.93;3.15;;;;;;;17.04;100.00;165023.47;5027192;28;20025;-58
2022/07/22 07:22:37;;;;;;;5.47;3.22;;;;;;;16.99;100.00;165009.94;5011638;28;20026;-57
2022/07/22 07:25:07;;;;;;;9.10;2.80;;;;;;;17.07;100.00;165030.25;5008671;28;20080;-57
2022/07/22 07:27:33;;;;;;;6.82;2.97;;;;;;;17.07;100.00;165031.63;5014775;28;20080;-58
2022/07/22 07:29:58;;;;;;;7.32;2.50;;;;;;;17.09;100.00;165035.69;5019331;28;20073;-57
2022/07/22 07:32:24;;;;;;;6.38;2.67;;;;;;;17.06;100.00;165028.91;5019693;28;20022;-58
2022/07/22 07:34:49;;;;;;;2.72;2.22;;;;;;;16.75;100.00;164947.56;5018647;28;20057;-58
2022/07/22 07:37:15;;;;;;;12.05;2.53;;;;;;;16.61;100.00;164909.63;5033806;28;20032;-58
2022/07/22 07:39:41;;;;;;;10.70;4.45;;;;;;;16.71;100.00;164936.75;5014067;28;20050;-58
2022/07/22 07:42:06;;;;;;;11.25;2.90;;;;;;;16.89;100.00;164982.78;5013388;28;20026;-58
2022/07/22 07:44:32;;;;;;;7.40;3.55;;;;;;;16.80;100.00;164961.09;5013638;28;20038;-58
2022/07/22 07:46:57;;;;;;;7.28;2.70;;;;;;;16.74;100.00;164943.50;5029914;28;20029;-58
2022/07/22 07:49:22;;;;;;;7.50;3.08;;;;;;;16.84;100.00;164969.25;5014638;28;20079;-58
2022/07/22 07:51:48;;;;;;;4.85;2.85;;;;;;;16.81;100.00;164963.81;5014086;28;20029;-58
2022/07/22 07:54:13;;;;;;;6.97;3.17;;;;;;;16.89;100.00;164982.78;5029496;28;20121;-57
2022/07/22 07:56:38;;;;;;;10.60;2.97;;;;;;;16.91;100.00;164988.22;5031388;28;20492;-59
2022/07/22 07:59:04;;;;;;;8.48;3.60;;;;;;;16.90;100.00;164985.50;5032362;28;20025;-58
2022/07/22 08:01:29;;;;;;;7.32;3.72;;;;;;;17.00;100.00;165012.66;5017760;28;20046;-58
2022/07/22 08:03:54;;;;;;;8.50;2.40;;;;;;;16.98;100.00;165007.22;5029064;28;20075;-58
2022/07/22 08:06:20;;;;;;;6.05;2.70;;;;;;;16.94;100.00;164997.75;5030835;28;20183;-58
2022/07/22 08:08:45;;;;;;;13.95;8.85;;;;;;;16.98;100.00;165007.22;5033392;28;20037;-58
2022/07/22 08:11:11;;;;;;;12.38;3.17;;;;;;;17.00;100.00;165011.28;5031199;28;20049;-58
2022/07/22 08:13:36;;;;;;;9.38;3.50;;;;;;;16.95;100.00;164999.06;5013604;28;20026;-58
2022/07/22 08:16:01;;;;;;;11.90;4.05;;;;;;;16.92;100.00;164990.94;5028016;28;20053;-58
2022/07/22 08:18:28;;;;;;;5.95;3.22;;;;;;;16.96;100.00;165001.78;5030866;28;20092;-58
2022/07/22 08:20:53;;;;;;;4.85;2.85;;;;;;;16.92;100.00;164990.94;5014579;28;20203;-58
2022/07/22 08:23:19;;;;;;;9.02;3.72;;;;;;;17.08;100.00;165034.34;5027562;28;20493;-58
2022/07/22 08:25:44;;;;;;;9.27;2.88;;;;;;;16.90;100.00;164985.50;5009978;28;20045;-58
2022/07/22 08:28:09;;;;;;;8.68;3.45;;;;;;;16.93;100.00;164993.69;5011067;28;20046;-57
2022/07/22 08:30:35;;;;;;;9.73;3.25;;;;;;;16.77;100.00;164953.00;5022416;28;20052;-58
2022/07/22 08:33:01;;;;;;;11.05;4.03;;;;;;;16.67;100.00;164925.88;5031918;28;20079;-58
2022/07/22 08:35:26;;;;;;;13.38;3.95;;;;;;;16.79;100.00;164958.38;5031339;28;20045;-58
2022/07/22 08:37:52;;;;;;;10.60;3.13;;;;;;;16.84;100.00;164969.25;5032563;28;20033;-58
2022/07/22 08:40:18;;;;;;;6.20;3.08;;;;;;;16.95;100.00;164999.06;5030882;28;20033;-58
2022/07/22 08:42:45;;;;;;;8.77;2.90;;;;;;;17.10;100.00;165039.72;5020988;28;20162;-58
2022/07/22 08:45:11;;;;;;;8.80;2.50;;;;;;;17.12;100.00;165043.81;5017680;28;20037;-58
2022/07/22 08:47:37;;;;;;;9.13;4.05;;;;;;;17.06;100.00;165027.53;5012254;28;20034;-58
2022/07/22 08:50:03;;;;;;;14.20;4.22;;;;;;;17.04;100.00;165023.47;5011548;28;20388;-58
2022/07/22 08:52:29;;;;;;;12.25;4.47;;;;;;;17.12;100.00;165043.81;5017375;28;20419;-58
2022/07/22 08:54:54;;;;;;;6.82;3.35;;;;;;;17.36;100.00;165106.13;5019609;28;20029;-58
2022/07/22 08:57:19;;;;;;;8.18;2.60;;;;;;;17.49;100.00;165140.03;5021940;28;20038;-58
2022/07/22 08:59:53;;;;;;;5.28;3.38;;;;;;;17.62;100.00;165175.25;5012579;28;20018;-58
2022/07/22 09:02:19;;;;;;;6.78;3.03;;;;;;;17.58;100.00;165164.44;5009367;28;20046;-58
2022/07/22 09:05:01;;;;;;;5.28;2.42;;;;;;;17.57;100.00;165161.72;5020264;28;20057;-58
2022/07/22 09:07:37;;;;;;;5.68;2.60;;;;;;;17.59;100.00;165167.16;5030593;28;20057;-58
2022/07/22 09:10:07;;;;;;;6.47;2.80;;;;;;;17.66;100.00;165186.13;5017052;28;20038;-58
2022/07/22 09:12:34;;;;;;;6.25;2.90;;;;;;;17.77;100.00;165215.91;5017709;28;20385;-58
2022/07/22 09:15:00;;;;;;;5.82;2.90;;;;;;;17.88;100.00;165244.38;5030165;28;20056;-58
2022/07/22 09:17:35;;;;;;;10.73;3.92;;;;;;;17.71;100.00;165198.31;5030778;28;20112;-58
2022/07/22 09:20:15;;;;;;;8.63;3.05;;;;;;;17.32;100.00;165095.31;5030535;28;20373;-58
2022/07/22 09:22:43;;;;;;;9.40;3.22;;;;;;;17.17;100.00;165055.97;5032017;28;20497;-58
2022/07/22 09:25:30;;;;;;;6.10;3.88;;;;;;;17.43;100.00;165125.09;5013802;28;20029;-59
2022/07/22 09:28:05;;;;;;;8.63;3.45;;;;;;;17.63;100.00;165177.97;5013550;28;20045;-58
2022/07/22 09:30:32;;;;;;;8.85;2.83;;;;;;;17.93;100.00;165256.59;5021854;28;20042;-59
2022/07/22 09:32:58;;;;;;;8.00;2.97;;;;;;;17.56;100.00;165159.00;5015807;28;20416;-59
2022/07/22 09:35:24;;;;;;;8.75;3.30;;;;;;;17.74;100.00;165207.81;5030045;28;20045;-58
2022/07/22 09:37:57;;;;;;;10.30;4.50;;;;;;;17.98;100.00;165270.22;5018168;28;20034;-58
2022/07/22 09:40:25;;;;;;;11.82;5.20;;;;;;;18.16;100.00;165316.28;5018922;28;20453;-58
2022/07/22 09:42:54;;;;;;;8.13;4.60;;;;;;;18.18;100.00;165323.06;5030810;28;20163;-58
2022/07/22 09:45:21;;;;;;;4.95;3.58;;;;;;;18.21;100.00;165331.22;5027245;28;20481;-59
2022/07/22 09:47:48;;;;;;;8.35;3.33;;;;;;;18.25;100.00;165340.72;5030368;28;20030;-58
2022/07/22 09:50:25;;;;;;;7.95;3.45;;;;;;;18.30;100.00;165354.25;5023689;28;20140;-58
2022/07/22 09:52:52;;;;;;;6.75;3.40;;;;;;;18.32;100.00;165359.69;5024563;28;20064;-58
2022/07/22 09:55:20;;;;;;;3.70;2.75;;;;;;;18.34;100.00;165365.13;5012186;28;20045;-58
2022/07/22 09:57:46;;;;;;;5.95;3.17;;;;;;;18.42;100.00;165384.09;5011750;28;20357;-59
2022/07/22 10:00:14;;;;;;;9.90;2.55;;;;;;;18.39;100.00;165378.66;5010012;28;20124;-59
2022/07/22 10:03:01;;;;;;;8.93;3.40;;;;;;;18.36;100.00;165369.19;5011382;28;20021;-59
2022/07/22 10:05:29;;;;;;;5.22;2.08;;;;;;;18.41;100.00;165381.38;5016611;28;20054;-58
2022/07/22 10:07:56;;;;;;;6.75;3.63;;;;;;;18.45;100.00;165392.22;5031032;28;20527;-58
2022/07/22 10:10:25;;;;;;;4.97;3.00;;;;;;;18.39;100.00;165378.66;5017486;28;20128;-59
2022/07/22 10:12:52;;;;;;;6.80;3.00;;;;;;;18.48;100.00;165400.38;5011881;28;20030;-58
2022/07/22 10:15:19;;;;;;;6.25;2.83;;;;;;;18.41;100.00;165381.38;5012468;28;20041;-58
2022/07/22 10:17:49;;;;;;;7.32;2.83;;;;;;;18.22;100.00;165332.56;5024141;28;20029;-59
2022/07/22 10:20:19;;;;;;;4.43;2.65;;;;;;;18.38;100.00;165374.63;5014392;28;20053;-58
2022/07/22 10:22:49;;;;;;;5.70;2.72;;;;;;;18.34;100.00;165365.13;5030846;28;20040;-59
2022/07/22 10:25:15;;;;;;;6.20;2.63;;;;;;;18.36;100.00;165370.50;5026804;28;20088;-59
2022/07/22 10:27:59;;;;;;;5.85;2.35;;;;;;;18.47;100.00;165397.66;5030281;28;20058;-58
2022/07/22 10:30:42;;;;;;;3.25;2.92;;;;;;;18.49;100.00;165404.44;5014670;28;20050;-58
2022/07/22 10:33:09;;;;;;;8.70;3.10;;;;;;;18.60;100.00;165432.91;5010949;28;20022;-59
2022/07/22 10:35:37;;;;;;;11.20;3.50;;;;;;;18.71;100.00;165462.75;5009779;28;20050;-58
2022/07/22 10:38:07;;;;;;;3.08;2.80;;;;;;;18.80;100.00;165484.47;5010737;28;20388;-59
2022/07/22 10:40:47;;;;;;;7.78;5.30;;;;;;;18.80;100.00;165484.47;5009776;28;20042;-59
2022/07/22 10:43:14;;;;;;;6.35;3.72;;;;;;;18.87;100.00;165503.47;5010801;28;20520;-58
2022/07/22 10:45:46;;;;;;;16.30;5.10;;;;;;;18.95;100.00;165523.81;5018077;28;20048;-59
2022/07/22 10:48:24;;;;;;;5.97;3.63;;;;;;;19.03;100.00;165546.88;5029912;28;20132;-59
2022/07/22 10:50:55;;;;;;;6.53;3.38;;;;;;;19.10;100.00;165563.19;5020827;28;20050;-58
2022/07/22 10:53:41;;;;;;;6.20;3.40;;;;;;;19.08;100.00;165557.75;5010717;28;20026;-58
2022/07/22 10:56:35;;;;;;;3.45;2.65;;;;;;;19.20;100.00;165590.28;5029017;28;20406;-59
2022/07/22 10:59:16;;;;;;;4.30;2.40;;;;;;;19.40;100.00;165641.88;5019920;28;20459;-58
2022/07/22 11:01:44;;;;;;;5.72;2.58;;;;;;;19.46;100.00;165658.16;5011769;28;20453;-59
2022/07/22 11:04:16;;;;;;;;;;;;;;;19.66;100.00;165712.41;5019549;28;20108;-59
2022/07/22 11:06:42;;;;;;;5.10;3.10;;;;;;;19.72;100.00;165725.97;5013265;28;19918;-59
2022/07/22 11:09:10;;;;;;;8.63;3.50;;;;;;;19.72;100.00;165725.97;5020571;28;20036;-58
2022/07/22 11:11:47;;;;;;;2.53;2.33;;;;;;;19.56;100.00;165685.25;5032928;28;20517;-59